createdAt,value
2024-01-16T00:02:18.774Z,100822.09
2024-01-16T00:04:45.945Z,100826.53
2024-01-16T00:07:13.097Z,100833.53
2024-01-16T00:09:40.283Z,100840.47
2024-01-16T00:12:07.944Z,100825.03
2024-01-16T00:14:38.546Z,100828.59
2024-01-16T00:17:06.681Z,100825.03
2024-01-16T00:19:33.990Z,100822.41
2024-01-16T00:22:03.711Z,100833.63
2024-01-16T00:24:30.763Z,100836.22
2024-01-16T00:26:58.083Z,100834.66
2024-01-16T00:29:25.188Z,100829.53
2024-01-16T00:31:52.229Z,100831.28
2024-01-16T00:34:19.419Z,100834.78
2024-01-16T00:36:46.543Z,100838.28
2024-01-16T00:39:14.553Z,100840.06
2024-01-16T00:41:41.656Z,100839.22
2024-01-16T00:44:09.215Z,100845.38
2024-01-16T00:46:36.327Z,100836.72
2024-01-16T00:49:03.593Z,100843.72
2024-01-16T00:51:30.709Z,100840.19
2024-01-16T00:53:57.975Z,100839.38
2024-01-16T00:56:25.631Z,100838.50
2024-01-16T00:58:52.717Z,100840.25
2024-01-16T01:01:20.005Z,100842.00
2024-01-16T01:03:47.187Z,100848.91
2024-01-16T01:06:14.361Z,100860.22
2024-01-16T01:08:41.699Z,100854.19
2024-01-16T01:11:08.791Z,100845.59
2024-01-16T01:13:35.889Z,100847.44
2024-01-16T01:16:02.924Z,100837.97
2024-01-16T01:18:30.075Z,100835.38
2024-01-16T01:20:57.531Z,100844.03
2024-01-16T01:23:24.652Z,100853.56
2024-01-16T01:25:52.661Z,100846.56
2024-01-16T01:28:20.111Z,100845.75
2024-01-16T01:30:47.418Z,100850.91
2024-01-16T01:33:14.655Z,100845.75
2024-01-16T01:35:41.850Z,100847.50
2024-01-16T01:38:09.558Z,100855.22
2024-01-16T01:40:36.880Z,100843.97
2024-01-16T01:43:36.456Z,100856.94
2024-01-16T01:46:23.035Z,100857.81
2024-01-16T01:48:51.004Z,100862.13
2024-01-16T01:51:21.714Z,100854.28
2024-01-16T01:53:52.337Z,100852.63
2024-01-16T01:56:20.672Z,100856.06
2024-01-16T01:58:50.901Z,100855.16
2024-01-16T02:01:20.925Z,100854.34
2024-01-16T02:03:50.745Z,100853.47
2024-01-16T02:06:18.092Z,100848.28
2024-01-16T02:08:46.665Z,100857.81
2024-01-16T02:11:14.152Z,100860.47
2024-01-16T02:13:42.862Z,100853.50
2024-01-16T02:16:23.687Z,100860.47
2024-01-16T02:18:52.986Z,100861.28
2024-01-16T02:21:23.547Z,100870.00
2024-01-16T02:23:51.071Z,100859.56
2024-01-16T02:26:20.126Z,100867.41
2024-01-16T02:28:47.492Z,100868.22
2024-01-16T02:31:14.998Z,100868.22
2024-01-16T02:33:42.165Z,100880.41
2024-01-16T02:36:09.351Z,100880.31
2024-01-16T02:38:36.494Z,100878.50
2024-01-16T02:41:03.581Z,100880.94
2024-01-16T02:43:30.655Z,100880.00
2024-01-16T02:45:59.128Z,100872.13
2024-01-16T02:48:26.716Z,100871.16
2024-01-16T02:50:54.182Z,100871.16
2024-01-16T02:53:21.371Z,100869.44
2024-01-16T02:55:48.485Z,100870.31
2024-01-16T02:58:15.607Z,100861.75
2024-01-16T03:00:42.977Z,100868.75
2024-01-16T03:03:10.345Z,100873.09
2024-01-16T03:05:37.830Z,100875.75
2024-01-16T03:08:05.420Z,100871.47
2024-01-16T03:10:32.526Z,100867.09
2024-01-16T03:12:59.835Z,100863.69
2024-01-16T03:15:26.930Z,100864.41
2024-01-16T03:17:54.141Z,100864.19
2024-01-16T03:20:21.265Z,100864.94
2024-01-16T03:22:48.528Z,100854.38
2024-01-16T03:25:15.622Z,100866.28
2024-01-16T03:27:42.640Z,100856.59
2024-01-16T03:30:10.674Z,100855.59
2024-01-16T03:32:38.986Z,100858.13
2024-01-16T03:35:07.470Z,100855.41
2024-01-16T03:37:34.973Z,100848.41
2024-01-16T03:40:02.419Z,100843.06
2024-01-16T03:42:29.700Z,100846.50
2024-01-16T03:44:56.704Z,100838.66
2024-01-16T03:47:24.691Z,100848.16
2024-01-16T03:49:52.206Z,100837.66
2024-01-16T03:52:19.481Z,100842.84
2024-01-16T03:54:46.629Z,100844.56
2024-01-16T03:57:13.837Z,100840.13
2024-01-16T03:59:40.958Z,100837.47
2024-01-16T04:02:08.072Z,100832.19
2024-01-16T04:04:35.981Z,100825.25
2024-01-16T04:07:03.038Z,100821.69
2024-01-16T04:09:30.866Z,100821.63
2024-01-16T04:11:57.963Z,100829.34
2024-01-16T04:14:25.199Z,100818.09
2024-01-16T04:16:52.304Z,100809.38
2024-01-16T04:19:19.535Z,100814.50
2024-01-16T04:21:47.421Z,100799.72
2024-01-16T04:24:14.726Z,100811.78
2024-01-16T04:26:41.952Z,100792.72
2024-01-16T04:29:09.665Z,100800.47
2024-01-16T04:31:43.965Z,100800.44
2024-01-16T04:34:11.486Z,100805.53
2024-01-16T04:36:38.616Z,100803.78
2024-01-16T04:39:05.882Z,100801.19
2024-01-16T04:41:33.048Z,100808.97
2024-01-16T04:44:00.560Z,100805.47
2024-01-16T04:46:27.769Z,100800.22
2024-01-16T04:48:55.083Z,100801.94
2024-01-16T04:51:22.297Z,100801.00
2024-01-16T04:53:49.373Z,100797.53
2024-01-16T04:56:16.520Z,100802.69
2024-01-16T04:58:43.655Z,100800.00
2024-01-16T05:01:10.738Z,100815.53
2024-01-16T05:03:37.788Z,100808.50
2024-01-16T05:06:05.243Z,100795.50
2024-01-16T05:08:32.496Z,100800.63
2024-01-16T05:10:59.701Z,100801.38
2024-01-16T05:13:26.804Z,100796.13
2024-01-16T05:15:54.042Z,100796.06
2024-01-16T05:18:21.551Z,100789.88
2024-01-16T05:20:48.905Z,100785.47
2024-01-16T05:23:16.122Z,100787.84
2024-01-16T05:25:43.240Z,100786.91
2024-01-16T05:28:10.416Z,100788.53
2024-01-16T05:30:37.628Z,100794.47
2024-01-16T05:33:05.467Z,100785.78
2024-01-16T05:35:32.877Z,100788.28
2024-01-16T05:38:04.271Z,100798.50
2024-01-16T05:40:31.299Z,100797.44
2024-01-16T05:42:58.357Z,100789.53
2024-01-16T05:45:25.478Z,100790.28
2024-01-16T05:47:52.661Z,100791.97
2024-01-16T05:50:19.924Z,100796.88
2024-01-16T05:52:47.443Z,100789.88
2024-01-16T05:55:14.791Z,100786.38
2024-01-16T05:57:42.791Z,100783.63
2024-01-16T06:00:11.301Z,100785.25
2024-01-16T06:02:38.459Z,100784.19
2024-01-16T06:05:07.050Z,100785.91
2024-01-16T06:07:34.162Z,100784.03
2024-01-16T06:10:01.222Z,100773.66
2024-01-16T06:12:28.460Z,100781.41
2024-01-16T06:14:55.814Z,100778.81
2024-01-16T06:17:23.054Z,100783.03
2024-01-16T06:19:50.262Z,100778.69
2024-01-16T06:22:17.726Z,100776.16
2024-01-16T06:24:44.849Z,100771.88
2024-01-16T06:27:11.938Z,100774.47
2024-01-16T06:29:39.063Z,100771.00
2024-01-16T06:32:06.369Z,100771.81
2024-01-16T06:34:33.559Z,100779.50
2024-01-16T06:37:00.644Z,100769.91
2024-01-16T06:39:27.638Z,100774.06
2024-01-16T06:41:54.802Z,100777.41
2024-01-16T06:44:22.114Z,100778.13
2024-01-16T06:46:49.287Z,100777.19
2024-01-16T06:49:16.521Z,100770.19
2024-01-16T06:51:43.744Z,100776.19
2024-01-16T06:54:10.790Z,100786.41
2024-01-16T06:56:38.186Z,100783.78
2024-01-16T06:59:06.946Z,100792.41
2024-01-16T07:01:35.672Z,100795.88
2024-01-16T07:04:02.819Z,100801.94
2024-01-16T07:06:30.210Z,100796.69
2024-01-16T07:08:57.746Z,100793.22
2024-01-16T07:11:25.469Z,100797.56
2024-01-16T07:13:52.746Z,100806.22
2024-01-16T07:16:20.081Z,100795.81
2024-01-16T07:18:48.509Z,100800.16
2024-01-16T07:21:20.279Z,100800.22
2024-01-16T07:23:47.685Z,100806.31
2024-01-16T07:26:15.014Z,100802.03
2024-01-16T07:28:42.176Z,100810.72
2024-01-16T07:31:10.745Z,100809.91
2024-01-16T07:33:38.159Z,100810.78
2024-01-16T07:36:06.590Z,100815.94
2024-01-16T07:38:33.839Z,100803.91
2024-01-16T07:41:01.208Z,100808.19
2024-01-16T07:43:28.378Z,100807.38
2024-01-16T07:45:55.600Z,100809.31
2024-01-16T07:48:24.166Z,100803.31
2024-01-16T07:50:52.141Z,100812.06
2024-01-16T07:53:19.403Z,100810.44
2024-01-16T07:55:46.508Z,100818.41
2024-01-16T07:58:15.501Z,100817.66
2024-01-16T08:00:42.621Z,100824.75
2024-01-16T08:03:15.552Z,100826.63
2024-01-16T08:05:43.291Z,100831.19
2024-01-16T08:08:10.984Z,100827.03
2024-01-16T08:10:38.491Z,100825.41
2024-01-16T08:13:05.948Z,100826.53
2024-01-16T08:15:33.095Z,100816.41
2024-01-16T08:18:00.485Z,100820.00
2024-01-16T08:20:28.135Z,100818.50
2024-01-16T08:22:55.497Z,100822.97
2024-01-16T08:25:22.848Z,100826.72
2024-01-16T08:27:50.055Z,100825.22
2024-01-16T08:30:17.523Z,100834.19
2024-01-16T08:32:44.712Z,100841.19
2024-01-16T08:35:12.080Z,100841.41
2024-01-16T08:37:39.213Z,100845.94
2024-01-16T08:40:07.709Z,100836.59
2024-01-16T08:42:34.855Z,100841.03
2024-01-16T08:45:02.871Z,100844.69
2024-01-16T08:47:30.190Z,100839.69
2024-01-16T08:49:57.455Z,100840.78
2024-01-16T08:52:25.112Z,100834.94
2024-01-16T08:54:52.400Z,100832.56
2024-01-16T08:57:20.948Z,100828.25
2024-01-16T08:59:48.946Z,100826.53
2024-01-16T09:02:16.461Z,100824.94
2024-01-16T09:04:44.929Z,100822.34
2024-01-16T09:07:16.831Z,100813.78
2024-01-16T09:09:44.380Z,100821.03
2024-01-16T09:12:11.680Z,100831.63
2024-01-16T09:14:39.214Z,100832.75
2024-01-16T09:17:06.448Z,100834.72
2024-01-16T09:19:33.681Z,100831.41
2024-01-16T09:22:00.926Z,100828.88
2024-01-16T09:24:28.003Z,100820.22
2024-01-16T09:26:55.150Z,100824.69
2024-01-16T09:29:23.785Z,100822.34
2024-01-16T09:31:50.860Z,100812.19
2024-01-16T09:34:19.228Z,100815.22
2024-01-16T09:36:46.715Z,100816.41
2024-01-16T09:39:16.661Z,100813.25
2024-01-16T09:41:46.449Z,100806.75
2024-01-16T09:44:14.005Z,100803.00
2024-01-16T09:46:45.837Z,100804.25
2024-01-16T09:49:15.686Z,100809.88
2024-01-16T09:51:44.745Z,100801.53
2024-01-16T09:54:12.070Z,100800.06
2024-01-16T09:56:52.898Z,100802.16
2024-01-16T09:59:22.081Z,100804.31
2024-01-16T10:01:52.730Z,100800.16
2024-01-16T10:04:19.986Z,100787.16
2024-01-16T10:06:48.360Z,100788.88
2024-01-16T10:09:17.138Z,100792.28
2024-01-16T10:11:45.153Z,100789.50
2024-01-16T10:14:13.075Z,100782.56
2024-01-16T10:17:15.303Z,100781.63
2024-01-16T10:19:58.133Z,100781.69
2024-01-16T10:22:27.517Z,100786.78
2024-01-16T10:25:08.636Z,100779.50
2024-01-16T10:27:37.220Z,100782.75
2024-01-16T10:30:05.629Z,100782.53
2024-01-16T10:32:38.916Z,100774.56
2024-01-16T10:35:12.247Z,100770.16
2024-01-16T10:37:54.640Z,100765.84
2024-01-16T10:40:32.280Z,100757.16
2024-01-16T10:43:04.606Z,100757.16
2024-01-16T10:45:33.737Z,100754.44
2024-01-16T10:48:09.597Z,100755.22
2024-01-16T10:50:40.577Z,100749.97
2024-01-16T10:53:09.771Z,100768.97
2024-01-16T10:55:53.352Z,100767.22
2024-01-16T10:58:26.526Z,100757.72
2024-01-16T11:00:55.515Z,100754.16
2024-01-16T11:03:47.690Z,100755.00
2024-01-16T11:06:20.355Z,100753.28
2024-01-16T11:08:49.217Z,100744.75
2024-01-16T11:11:17.310Z,100745.66
2024-01-16T11:13:47.498Z,100744.00
2024-01-16T11:16:14.996Z,100744.03
2024-01-16T11:18:42.219Z,100735.47
2024-01-16T11:21:17.068Z,100745.88
2024-01-16T11:23:47.406Z,100739.81
2024-01-16T11:26:35.500Z,100732.88
2024-01-16T11:29:35.864Z,100735.59
2024-01-16T11:32:14.037Z,100734.66
2024-01-16T11:34:52.284Z,100736.25
2024-01-16T11:37:33.752Z,100738.81
2024-01-16T11:40:20.555Z,100737.06
2024-01-16T11:42:52.003Z,100732.78
2024-01-16T11:45:31.320Z,100734.50
2024-01-16T11:48:19.101Z,100730.16
2024-01-16T11:50:47.087Z,100726.66
2024-01-16T11:53:41.900Z,100719.72
2024-01-16T11:56:31.229Z,100717.19
2024-01-16T11:59:51.886Z,100711.16
2024-01-16T12:02:25.526Z,100708.50
2024-01-16T12:04:57.700Z,100711.16
2024-01-16T12:07:25.127Z,100707.72
2024-01-16T12:09:52.393Z,100701.72
2024-01-16T12:12:22.312Z,100703.53
2024-01-16T12:14:56.318Z,100710.53
2024-01-16T12:17:23.744Z,100698.44
2024-01-16T12:19:51.132Z,100688.97
2024-01-16T12:22:25.347Z,100684.63
2024-01-16T12:24:57.905Z,100687.22
2024-01-16T12:27:25.200Z,100688.06
2024-01-16T12:30:08.709Z,100675.91
2024-01-16T12:32:36.418Z,100674.25
2024-01-16T12:35:05.408Z,100677.84
2024-01-16T12:37:32.616Z,100670.88
2024-01-16T12:39:59.965Z,100671.75
2024-01-16T12:42:27.352Z,100669.06
2024-01-16T12:44:55.951Z,100668.16
2024-01-16T12:47:23.764Z,100671.59
2024-01-16T12:49:51.039Z,100680.31
2024-01-16T12:52:22.043Z,100676.13
2024-01-16T12:54:53.417Z,100675.31
2024-01-16T12:57:21.879Z,100670.97
2024-01-16T12:59:50.525Z,100669.31
2024-01-16T13:02:26.349Z,100675.31
2024-01-16T13:05:03.394Z,100660.69
2024-01-16T13:07:34.550Z,100658.16
2024-01-16T13:10:28.253Z,100654.72
2024-01-16T13:13:14.496Z,100653.00
2024-01-16T13:15:42.467Z,100658.28
2024-01-16T13:18:21.627Z,100645.25
2024-01-16T13:20:51.310Z,100650.50
2024-01-16T13:23:19.221Z,100648.75
2024-01-16T13:25:48.191Z,100646.97
2024-01-16T13:28:21.398Z,100651.28
2024-01-16T13:30:50.651Z,100655.59
2024-01-16T13:33:18.348Z,100647.91
2024-01-16T13:35:47.921Z,100647.19
2024-01-16T13:38:22.864Z,100647.19
2024-01-16T13:40:51.506Z,100635.00
2024-01-16T13:43:18.782Z,100640.16
2024-01-16T13:45:46.423Z,100634.94
2024-01-16T13:48:13.758Z,100630.53
2024-01-16T13:50:40.840Z,100629.66
2024-01-16T13:53:08.973Z,100625.22
2024-01-16T13:55:36.280Z,100611.31
2024-01-16T13:58:03.983Z,100609.59
2024-01-16T14:00:32.898Z,100614.78
2024-01-16T14:03:00.309Z,100610.31
2024-01-16T14:05:28.118Z,100613.72
2024-01-16T14:07:55.769Z,100620.59
2024-01-16T14:10:26.208Z,100619.75
2024-01-16T14:12:53.662Z,100616.31
2024-01-16T14:15:25.669Z,100617.19
2024-01-16T14:17:56.236Z,100611.25
2024-01-16T14:20:28.203Z,100604.53
2024-01-16T14:22:57.617Z,100603.13
2024-01-16T14:25:24.889Z,100600.78
2024-01-16T14:28:12.346Z,100596.56
2024-01-16T14:30:44.242Z,100599.13
2024-01-16T14:33:11.765Z,100594.69
2024-01-16T14:35:39.264Z,100598.91
2024-01-16T14:38:07.059Z,100601.47
2024-01-16T14:40:34.156Z,100597.03
2024-01-16T14:43:05.181Z,100591.59
2024-01-16T14:45:32.767Z,100589.63
2024-01-16T14:48:00.737Z,100583.34
2024-01-16T14:50:28.455Z,100583.09
2024-01-16T14:52:58.416Z,100572.50
2024-01-16T14:55:27.792Z,100566.19
2024-01-16T14:58:01.108Z,100571.22
2024-01-16T15:00:28.741Z,100564.06
2024-01-16T15:02:56.194Z,100567.28
2024-01-16T15:05:24.364Z,100563.59
2024-01-16T15:07:55.100Z,100565.09
2024-01-16T15:10:22.523Z,100564.06
2024-01-16T15:12:50.430Z,100556.06
2024-01-16T15:15:17.923Z,100560.16
2024-01-16T15:17:46.417Z,100558.22
2024-01-16T15:20:13.955Z,100554.56
2024-01-16T15:22:46.679Z,100554.41
2024-01-16T15:25:16.792Z,100553.31
2024-01-16T15:27:46.305Z,100562.69
2024-01-16T15:30:15.500Z,100559.88
2024-01-16T15:32:42.913Z,100562.19
2024-01-16T15:35:10.288Z,100564.50
2024-01-16T15:37:37.722Z,100560.00
2024-01-16T15:40:07.984Z,100560.63
2024-01-16T15:42:39.922Z,100573.31
2024-01-16T15:45:08.124Z,100567.00
2024-01-16T15:47:35.301Z,100570.22
2024-01-16T15:50:04.147Z,100572.59
2024-01-16T15:52:31.875Z,100576.66
2024-01-16T15:55:00.347Z,100578.97
2024-01-16T15:57:27.405Z,100576.06
2024-01-16T15:59:54.629Z,100567.97
2024-01-16T16:02:21.858Z,100580.72
2024-01-16T16:04:49.148Z,100573.56
2024-01-16T16:07:17.252Z,100580.31
2024-01-16T16:09:44.759Z,100572.25
2024-01-16T16:12:12.329Z,100588.53
2024-01-16T16:14:41.672Z,100587.38
2024-01-16T16:17:09.812Z,100587.22
2024-01-16T16:19:37.601Z,100587.03
2024-01-16T16:22:05.932Z,100590.38
2024-01-16T16:24:34.128Z,100582.47
2024-01-16T16:27:01.345Z,100584.06
2024-01-16T16:29:28.714Z,100582.19
2024-01-16T16:31:56.072Z,100583.69
2024-01-16T16:34:23.322Z,100582.75
2024-01-16T16:36:50.992Z,100579.19
2024-01-16T16:39:18.813Z,100582.50
2024-01-16T16:41:46.162Z,100569.38
2024-01-16T16:44:13.378Z,100565.03
2024-01-16T16:46:40.556Z,100572.72
2024-01-16T16:49:07.733Z,100568.38
2024-01-16T16:51:42.761Z,100568.31
2024-01-16T16:54:11.517Z,100562.13
2024-01-16T16:56:42.220Z,100569.81
2024-01-16T16:59:11.035Z,100570.69
2024-01-16T17:01:40.008Z,100568.88
2024-01-16T17:04:07.954Z,100561.06
2024-01-16T17:06:35.593Z,100561.81
2024-01-16T17:09:03.121Z,100555.75
2024-01-16T17:11:30.365Z,100564.38
2024-01-16T17:15:38.456Z,100551.47
2024-01-16T17:18:07.299Z,100553.13
2024-01-16T17:20:34.475Z,100551.25
2024-01-16T17:23:01.534Z,100547.56
2024-01-16T17:25:28.883Z,100548.34
2024-01-16T17:27:55.932Z,100540.38
2024-01-16T17:30:23.006Z,100541.13
2024-01-16T17:32:50.251Z,100534.16
2024-01-16T17:35:20.606Z,100531.47
2024-01-16T17:37:47.746Z,100526.13
2024-01-16T17:40:15.010Z,100521.75
2024-01-16T17:42:42.872Z,100516.41
2024-01-16T17:45:10.401Z,100518.94
2024-01-16T17:47:37.578Z,100517.94
2024-01-16T17:50:09.921Z,100510.94
2024-01-16T17:52:37.324Z,100510.81
2024-01-16T17:55:06.834Z,100511.56
2024-01-16T17:57:33.994Z,100504.56
2024-01-16T18:00:01.200Z,100500.16
2024-01-16T18:02:28.368Z,100490.66
2024-01-16T18:04:55.483Z,100488.91
2024-01-16T18:07:22.551Z,100490.53
2024-01-16T18:09:49.695Z,100491.31
2024-01-16T18:12:16.871Z,100489.66
2024-01-16T18:14:44.022Z,100480.13
2024-01-16T18:17:11.266Z,100469.69
2024-01-16T18:19:38.984Z,100474.06
2024-01-16T18:22:09.271Z,100471.38
2024-01-16T18:24:38.529Z,100469.56
2024-01-16T18:27:08.943Z,100460.84
2024-01-16T18:29:38.266Z,100459.91
2024-01-16T18:32:08.066Z,100463.31
2024-01-16T18:34:35.206Z,100450.28
2024-01-16T18:37:02.358Z,100449.41
2024-01-16T18:39:30.809Z,100451.91
2024-01-16T18:41:58.140Z,100445.78
2024-01-16T18:44:25.290Z,100443.22
2024-01-16T18:46:52.581Z,100442.28
2024-01-16T18:49:20.090Z,100443.97
2024-01-16T18:51:48.493Z,100448.19
2024-01-16T18:54:16.816Z,100449.06
2024-01-16T18:56:44.227Z,100449.00
2024-01-16T18:59:12.506Z,100448.91
2024-01-16T19:01:40.762Z,100444.59
2024-01-16T19:04:13.625Z,100444.53
2024-01-16T19:06:48.656Z,100436.78
2024-01-16T19:09:18.766Z,100441.88
2024-01-16T19:11:55.480Z,100434.09
2024-01-16T19:14:22.740Z,100435.69
2024-01-16T19:16:51.215Z,100438.34
2024-01-16T19:19:18.326Z,100433.03
2024-01-16T19:21:47.690Z,100436.38
2024-01-16T19:24:16.867Z,100429.47
2024-01-16T19:26:45.189Z,100428.53
2024-01-16T19:29:12.522Z,100430.22
2024-01-16T19:31:40.309Z,100426.66
2024-01-16T19:34:08.762Z,100426.66
2024-01-16T19:36:35.957Z,100405.16
2024-01-16T19:39:03.035Z,100415.41
2024-01-16T19:41:33.018Z,100411.97
2024-01-16T19:44:00.225Z,100407.56
2024-01-16T19:46:27.368Z,100406.69
2024-01-16T19:48:54.717Z,100411.03
2024-01-16T19:51:21.822Z,100399.75
2024-01-16T19:53:49.040Z,100406.59
2024-01-16T19:56:16.086Z,100404.91
2024-01-16T19:58:43.676Z,100413.44
2024-01-16T20:01:11.510Z,100404.81
2024-01-16T20:03:42.144Z,100405.66
2024-01-16T20:06:13.421Z,100397.84
2024-01-16T20:08:40.538Z,100394.41
2024-01-16T20:11:07.674Z,100389.28
2024-01-16T20:13:34.749Z,100390.13
2024-01-16T20:16:02.560Z,100383.19
2024-01-16T20:18:29.757Z,100382.25
2024-01-16T20:20:56.882Z,100375.34
2024-01-16T20:23:25.323Z,100367.59
2024-01-16T20:25:52.507Z,100372.66
2024-01-16T20:28:19.610Z,100369.22
2024-01-16T20:30:46.738Z,100366.63
2024-01-16T20:33:14.035Z,100363.19
2024-01-16T20:35:41.163Z,100361.47
2024-01-16T20:38:08.767Z,100362.31
2024-01-16T20:40:36.226Z,100356.25
2024-01-16T20:43:03.674Z,100360.53
2024-01-16T20:45:30.740Z,100357.09
2024-01-16T20:47:58.473Z,100339.78
2024-01-16T20:50:25.783Z,100340.69
2024-01-16T20:52:52.917Z,100340.69
2024-01-16T20:55:20.382Z,100342.44
2024-01-16T20:57:48.295Z,100334.69
2024-01-16T21:00:15.992Z,100337.22
2024-01-16T21:02:45.729Z,100326.91
2024-01-16T21:05:12.941Z,100322.56
2024-01-16T21:07:41.519Z,100317.41
2024-01-16T21:10:09.640Z,100309.69
2024-01-16T21:12:36.963Z,100308.81
2024-01-16T21:15:04.436Z,100303.66
2024-01-16T21:17:31.541Z,100303.56
2024-01-16T21:19:58.684Z,100296.59
2024-01-16T21:22:33.328Z,100292.31
2024-01-16T21:25:05.999Z,100284.50
2024-01-16T21:27:34.489Z,100281.06
2024-01-16T21:30:02.079Z,100277.59
2024-01-16T21:32:29.621Z,100276.66
2024-01-16T21:34:56.706Z,100269.72
2024-01-16T21:37:23.847Z,100272.28
2024-01-16T21:39:50.927Z,100265.38
2024-01-16T21:42:18.141Z,100266.25
2024-01-16T21:44:46.081Z,100254.25
2024-01-16T21:47:13.493Z,100249.91
2024-01-16T21:49:40.659Z,100251.63
2024-01-16T21:52:08.504Z,100243.78
2024-01-16T21:54:35.580Z,100239.44
2024-01-16T21:57:02.862Z,100240.97
2024-01-16T21:59:29.895Z,100244.38
2024-01-16T22:01:56.977Z,100240.94
2024-01-16T22:04:24.088Z,100238.28
2024-01-16T22:06:51.127Z,100245.13
2024-01-16T22:09:22.076Z,100242.56
2024-01-16T22:11:50.090Z,100228.75
2024-01-16T22:14:17.281Z,100216.69
2024-01-16T22:16:44.458Z,100214.81
2024-01-16T22:19:11.509Z,100208.84
2024-01-16T22:21:38.637Z,100202.81
2024-01-16T22:24:06.205Z,100204.53
2024-01-16T22:26:33.387Z,100199.38
2024-01-16T22:29:00.913Z,100201.88
2024-01-16T22:31:28.183Z,100207.91
2024-01-16T22:33:55.579Z,100213.94
2024-01-16T22:36:22.840Z,100196.75
2024-01-16T22:38:50.024Z,100190.72
2024-01-16T22:41:17.272Z,100190.72
2024-01-16T22:43:47.597Z,100187.25
2024-01-16T22:46:14.621Z,100190.75
2024-01-16T22:48:41.980Z,100192.47
2024-01-16T22:51:10.470Z,100189.88
2024-01-16T22:53:37.827Z,100190.75
2024-01-16T22:56:05.595Z,100194.22
2024-01-16T22:58:33.785Z,100196.75
2024-01-16T23:01:02.225Z,100196.75
2024-01-16T23:03:30.724Z,100192.34
2024-01-16T23:05:58.220Z,100200.06
2024-01-16T23:08:25.426Z,100186.16
2024-01-16T23:10:55.206Z,100179.25
2024-01-16T23:13:22.842Z,100177.50
2024-01-16T23:15:50.065Z,100162.81
2024-01-16T23:18:17.425Z,100161.97
2024-01-16T23:20:45.966Z,100149.91
2024-01-16T23:23:13.731Z,100142.06
2024-01-16T23:25:40.967Z,100136.91
2024-01-16T23:28:08.318Z,100126.53
2024-01-16T23:30:38.063Z,100123.03
2024-01-16T23:33:07.069Z,100122.16
2024-01-16T23:35:34.334Z,100111.84
2024-01-16T23:38:01.442Z,100099.78
2024-01-16T23:40:28.700Z,100088.59
2024-01-16T23:42:56.806Z,100092.88
2024-01-16T23:45:30.514Z,100087.72
2024-01-16T23:48:00.683Z,100079.03
2024-01-16T23:50:27.933Z,100073.00
2024-01-16T23:52:55.003Z,100064.41
2024-01-16T23:55:22.644Z,100056.81
2024-01-16T23:57:50.164Z,100050.72
